Cruzeiro Do Canal — CSVG — position and weather

sailwx.info

Track history (hours):
 
Tides and Currents Weather Stations Pressure Air Temp Water Temp Dewpoint Dewpoint Depression Visibility Wind Speed Wind Dir Waves Ship Positions

Cruzeiro Do Canal

Last reported at 2017-Nov-22 19:29 UTC. Time now 2017-Nov-23 07:51 UTC.
Position N 38°32' W 028°37'.

Length 32 m; draft 2.3 m.

Type: Passenger vessel. MMSI: 204701250.

Date/timePositionNaut miles runAvg speedWind from/ knotsBaromVisibWave heightAir tempDewpointWater temp
2017-Nov-22 19:29N 38°32' W 028°37'  
2017-Nov-19 19:34N 38°32' W 028°37'0 0.0
2017-Nov-19 19:30N 38°32' W 028°37'4 8.5
2017-Nov-19 19:00N 38°32' W 028°32'1 2.6
2017-Nov-19 18:30N 38°32' W 028°34'3 5.8
2017-Nov-19 18:00N 38°32' W 028°37'0 0.0
2017-Nov-19 17:31N 38°32' W 028°37'0 0.0
2017-Nov-18 21:02N 38°32' W 028°37'0 0.0
2017-Nov-18 21:00N 38°32' W 028°37'4 8.5
2017-Nov-18 20:30N 38°32' W 028°32'1 1.4
2017-Nov-18 20:00N 38°33' W 028°32'612.3
2017-Nov-18 19:30N 38°36' W 028°25'612.2
2017-Nov-18 19:00N 38°38' W 028°18'510.4
2017-Nov-18 18:31N 38°41' W 028°12'2 3.5
2017-Nov-18 18:00N 38°39' W 028°13'612.0
2017-Nov-18 17:30N 38°34' W 028°17'3 5.5
2017-Nov-18 17:01N 38°32' W 028°19'0 0.0
2017-Nov-18 16:30N 38°32' W 028°19'0 0.0
2017-Nov-18 16:00N 38°32' W 028°19'0 0.0
2017-Nov-18 15:30N 38°32' W 028°19'0 0.0
2017-Nov-18 15:00N 38°32' W 028°19'2 4.6
2017-Nov-18 14:30N 38°33' W 028°17'611.9
2017-Nov-18 14:00N 38°39' W 028°13'2 4.6
2017-Nov-18 13:31N 38°41' W 028°12'0 0.0
2017-Nov-18 13:00N 38°41' W 028°12'3 5.2
2017-Nov-18 12:30N 38°39' W 028°15'612.1
2017-Nov-18 12:01N 38°36' W 028°22'612.1
2017-Nov-18 11:30N 38°34' W 028°29'3 6.0
2017-Nov-18 11:00N 38°32' W 028°32'4 8.6
2017-Nov-18 10:30N 38°32' W 028°37'0 0.0
2017-Nov-17 19:52N 38°32' W 028°37'0 0.1
2017-Nov-17 19:30N 38°32' W 028°37'4 8.5
2017-Nov-17 19:01N 38°32' W 028°32'2 4.0
2017-Nov-17 18:31N 38°33' W 028°34'2 4.5
2017-Nov-17 18:00N 38°32' W 028°37'0 0.0
2017-Nov-17 17:30N 38°32' W 028°37'0 0.0
2017-Nov-17 17:00N 38°32' W 028°37'0 0.0
2017-Nov-17 16:30N 38°32' W 028°37'0 0.0
2017-Nov-17 16:00N 38°32' W 028°37'0 0.0
2017-Nov-17 15:30N 38°32' W 028°37'0 0.0
2017-Nov-17 15:00N 38°32' W 028°37'0 0.0
2017-Nov-17 14:30N 38°32' W 028°37'0 0.0
2017-Nov-17 14:00N 38°32' W 028°37'0 0.0
2017-Nov-17 13:30N 38°32' W 028°37'0 0.0
2017-Nov-17 13:00N 38°32' W 028°37'4 8.4
2017-Nov-17 12:30N 38°32' W 028°32'2 3.5
2017-Nov-17 12:00N 38°33' W 028°34'3 5.0
2017-Nov-17 11:31N 38°32' W 028°37'0 0.0
2017-Nov-17 11:00N 38°32' W 028°37'0 0.0
2017-Nov-16 13:02N 38°32' W 028°37'0 0.0
2017-Nov-16 13:00N 38°32' W 028°37'4 8.6
2017-Nov-16 12:30N 38°32' W 028°32'2 3.1
2017-Nov-16 12:00N 38°32' W 028°34'3 5.5
2017-Nov-16 11:31N 38°32' W 028°37'0 0.0
2017-Nov-15 19:48N 38°32' W 028°37'0 0.0
2017-Nov-15 19:30N 38°32' W 028°37'4 8.4
2017-Nov-15 19:00N 38°32' W 028°32'2 3.3
2017-Nov-15 18:30N 38°32' W 028°34'3 5.1
2017-Nov-15 18:00N 38°32' W 028°37'0 0.0
2017-Nov-15 17:30N 38°32' W 028°37'0 0.0
2017-Nov-15 17:00N 38°32' W 028°37'0 0.0
2017-Nov-15 16:30N 38°32' W 028°37'0 0.0
2017-Nov-15 16:00N 38°32' W 028°37'0 0.0
2017-Nov-15 15:30N 38°32' W 028°37'0 0.0
2017-Nov-15 15:00N 38°32' W 028°37'0 0.0
2017-Nov-15 14:30N 38°32' W 028°37'0 0.0
2017-Nov-15 14:01N 38°32' W 028°37'0 0.0
2017-Nov-15 13:30N 38°32' W 028°37'0 0.0
2017-Nov-15 13:01N 38°32' W 028°37'4 8.4
2017-Nov-15 12:30N 38°32' W 028°32'2 4.5
2017-Nov-15 12:00N 38°32' W 028°35'2 4.0
2017-Nov-15 11:30N 38°32' W 028°37'0 0.0
2017-Nov-14 13:08N 38°32' W 028°37'0 0.0
2017-Nov-14 13:00N 38°32' W 028°37'4 8.5
2017-Nov-14 12:30N 38°32' W 028°32'2 4.0
2017-Nov-14 12:00N 38°33' W 028°34'2 4.7
2017-Nov-14 11:30N 38°32' W 028°37'  
Track history (hours):
 
Tides and Currents Weather Stations Pressure Air Temp Water Temp Dewpoint Dewpoint Depression Visibility Wind Speed Wind Dir Waves Ship Positions

Cruzeiro Do Canal

Last reported at 2017-Nov-22 19:29 UTC. Time now 2017-Nov-23 07:51 UTC.
Position N 38°32' W 028°37'.

Length 32 m; draft 2.3 m.

Type: Passenger vessel. MMSI: 204701250.

Date/timePositionNaut miles runAvg speedWind from/ knotsBaromVisibWave heightAir tempDewpointWater temp
2017-Nov-22 19:29N 38°32' W 028°37'  
2017-Nov-19 19:34N 38°32' W 028°37'0 0.0
2017-Nov-19 19:30N 38°32' W 028°37'4 8.5
2017-Nov-19 19:00N 38°32' W 028°32'1 2.6
2017-Nov-19 18:30N 38°32' W 028°34'3 5.8
2017-Nov-19 18:00N 38°32' W 028°37'0 0.0
2017-Nov-19 17:31N 38°32' W 028°37'0 0.0
2017-Nov-18 21:02N 38°32' W 028°37'0 0.0
2017-Nov-18 21:00N 38°32' W 028°37'4 8.5
2017-Nov-18 20:30N 38°32' W 028°32'1 1.4
2017-Nov-18 20:00N 38°33' W 028°32'612.3
2017-Nov-18 19:30N 38°36' W 028°25'612.2
2017-Nov-18 19:00N 38°38' W 028°18'510.4
2017-Nov-18 18:31N 38°41' W 028°12'2 3.5
2017-Nov-18 18:00N 38°39' W 028°13'612.0
2017-Nov-18 17:30N 38°34' W 028°17'3 5.5
2017-Nov-18 17:01N 38°32' W 028°19'0 0.0
2017-Nov-18 16:30N 38°32' W 028°19'0 0.0
2017-Nov-18 16:00N 38°32' W 028°19'0 0.0
2017-Nov-18 15:30N 38°32' W 028°19'0 0.0
2017-Nov-18 15:00N 38°32' W 028°19'2 4.6
2017-Nov-18 14:30N 38°33' W 028°17'611.9
2017-Nov-18 14:00N 38°39' W 028°13'2 4.6
2017-Nov-18 13:31N 38°41' W 028°12'0 0.0
2017-Nov-18 13:00N 38°41' W 028°12'3 5.2
2017-Nov-18 12:30N 38°39' W 028°15'612.1
2017-Nov-18 12:01N 38°36' W 028°22'612.1
2017-Nov-18 11:30N 38°34' W 028°29'3 6.0
2017-Nov-18 11:00N 38°32' W 028°32'4 8.6
2017-Nov-18 10:30N 38°32' W 028°37'0 0.0
2017-Nov-17 19:52N 38°32' W 028°37'0 0.1
2017-Nov-17 19:30N 38°32' W 028°37'4 8.5
2017-Nov-17 19:01N 38°32' W 028°32'2 4.0
2017-Nov-17 18:31N 38°33' W 028°34'2 4.5
2017-Nov-17 18:00N 38°32' W 028°37'0 0.0
2017-Nov-17 17:30N 38°32' W 028°37'0 0.0
2017-Nov-17 17:00N 38°32' W 028°37'0 0.0
2017-Nov-17 16:30N 38°32' W 028°37'0 0.0
2017-Nov-17 16:00N 38°32' W 028°37'0 0.0
2017-Nov-17 15:30N 38°32' W 028°37'0 0.0
2017-Nov-17 15:00N 38°32' W 028°37'0 0.0
2017-Nov-17 14:30N 38°32' W 028°37'0 0.0
2017-Nov-17 14:00N 38°32' W 028°37'0 0.0
2017-Nov-17 13:30N 38°32' W 028°37'0 0.0
2017-Nov-17 13:00N 38°32' W 028°37'4 8.4
2017-Nov-17 12:30N 38°32' W 028°32'2 3.5
2017-Nov-17 12:00N 38°33' W 028°34'3 5.0
2017-Nov-17 11:31N 38°32' W 028°37'0 0.0
2017-Nov-17 11:00N 38°32' W 028°37'0 0.0
2017-Nov-16 13:02N 38°32' W 028°37'0 0.0
2017-Nov-16 13:00N 38°32' W 028°37'4 8.6
2017-Nov-16 12:30N 38°32' W 028°32'2 3.1
2017-Nov-16 12:00N 38°32' W 028°34'3 5.5
2017-Nov-16 11:31N 38°32' W 028°37'0 0.0
2017-Nov-15 19:48N 38°32' W 028°37'0 0.0
2017-Nov-15 19:30N 38°32' W 028°37'4 8.4
2017-Nov-15 19:00N 38°32' W 028°32'2 3.3
2017-Nov-15 18:30N 38°32' W 028°34'3 5.1
2017-Nov-15 18:00N 38°32' W 028°37'0 0.0
2017-Nov-15 17:30N 38°32' W 028°37'0 0.0
2017-Nov-15 17:00N 38°32' W 028°37'0 0.0
2017-Nov-15 16:30N 38°32' W 028°37'0 0.0
2017-Nov-15 16:00N 38°32' W 028°37'0 0.0
2017-Nov-15 15:30N 38°32' W 028°37'0 0.0
2017-Nov-15 15:00N 38°32' W 028°37'0 0.0
2017-Nov-15 14:30N 38°32' W 028°37'0 0.0
2017-Nov-15 14:01N 38°32' W 028°37'0 0.0
2017-Nov-15 13:30N 38°32' W 028°37'0 0.0
2017-Nov-15 13:01N 38°32' W 028°37'4 8.4
2017-Nov-15 12:30N 38°32' W 028°32'2 4.5
2017-Nov-15 12:00N 38°32' W 028°35'2 4.0
2017-Nov-15 11:30N 38°32' W 028°37'0 0.0
2017-Nov-14 13:08N 38°32' W 028°37'0 0.0
2017-Nov-14 13:00N 38°32' W 028°37'4 8.5
2017-Nov-14 12:30N 38°32' W 028°32'2 4.0
2017-Nov-14 12:00N 38°33' W 028°34'2 4.7
2017-Nov-14 11:30N 38°32' W 028°37'  

Dump ship's entire track history